| time (UTC) | temp C | wind direction | speed KPH | gust KPH | rain 1hr cm | rain 24hr cm | rain mn cm | humidity % | barometer mb |
| 20260510204553 | 18 | 326 | 11.3 | 20.9 | 0.00 | 0.00 | 0.00 | 39 | 1020.8 |
| 20260510203053 | 18 | 4 | 6.4 | 14.5 | 0.00 | 0.00 | 0.00 | 41 | 1021.1 |
| 20260510201554 | 18 | 56 | 6.4 | 16.1 | 0.00 | 0.00 | 0.00 | 42 | 1021.3 |
| 20260510200053 | 18 | 44 | 6.4 | 14.5 | 0.00 | 0.00 | 0.00 | 43 | 1021.5 |
| 20260510194552 | 18 | 309 | 3.2 | 12.9 | 0.00 | 0.00 | 0.00 | 49 | 1021.4 |
| 20260510193103 | 18 | 288 | 4.8 | 11.3 | 0.00 | 0.00 | 0.00 | 44 | 1021.4 |
| 20260510191554 | 17 | 56 | 4.8 | 12.9 | 0.00 | 0.00 | 0.00 | 40 | 1021.4 |
| 20260510190057 | 17 | 29 | 3.2 | 11.3 | 0.00 | 0.00 | 0.00 | 41 | 1021.4 |
| 20260510184552 | 17 | 0 | 4.8 | 12.9 | 0.00 | 0.00 | 0.00 | 42 | 1021.4 |
| 20260510183055 | 16 | 54 | 3.2 | 16.1 | 0.00 | 0.00 | 0.00 | 43 | 1021.5 |
| 20260510181555 | 16 | 131 | 4.8 | 14.5 | 0.00 | 0.00 | 0.00 | 43 | 1021.4 |
| 20260510180058 | 17 | 333 | 8.0 | 17.7 | 0.00 | 0.00 | 0.00 | 43 | 1021.0 |
| 20260510174555 | 17 | 59 | 11.3 | 24.1 | 0.00 | 0.00 | 0.00 | 42 | 1021.1 |
| 20260510173057 | 17 | 314 | 4.8 | 16.1 | 0.00 | 0.00 | 0.00 | 43 | 1021.3 |
| 20260510171557 | 16 | 57 | 6.4 | 14.5 | 0.00 | 0.00 | 0.00 | 45 | 1021.3 |
| 20260510170100 | 16 | 360 | 8.0 | 20.9 | 0.00 | 0.00 | 0.00 | 44 | 1021.1 |
| 20260510164601 | 16 | 28 | 6.4 | 17.7 | 0.00 | 0.00 | 0.00 | 44 | 1021.3 |
| 20260510163054 | 16 | 319 | 8.0 | 16.1 | 0.00 | 0.00 | 0.00 | 46 | 1021.0 |
| 20260510161554 | 16 | 58 | 9.7 | 19.3 | 0.00 | 0.00 | 0.00 | 42 | 1021.0 |
| 20260510160100 | 16 | 72 | 3.2 | 14.5 | 0.00 | 0.00 | 0.00 | 49 | 1021.1 |
| 20260510154617 | 16 | 354 | 4.8 | 16.1 | 0.00 | 0.00 | 0.00 | 47 | 1020.9 |
| 20260510153056 | 16 | 39 | 6.4 | 16.1 | 0.00 | 0.00 | 0.00 | 49 | 1020.8 |
| 20260510151554 | 15 | 335 | 4.8 | 14.5 | 0.00 | 0.00 | 0.00 | 50 | 1020.8 |
| 20260510150054 | 15 | 33 | 6.4 | 14.5 | 0.00 | 0.00 | 0.00 | 46 | 1020.8 |
| 20260510144554 | 15 | 46 | 6.4 | 16.1 | 0.00 | 0.00 | 0.00 | 48 | 1021.1 |
| 20260510143057 | 15 | 142 | 4.8 | 14.5 | 0.00 | 0.00 | 0.00 | 49 | 1020.9 |
| 20260510141554 | 15 | 48 | 4.8 | 12.9 | 0.00 | 0.00 | 0.00 | 53 | 1020.6 |
| 20260510140056 | 15 | 31 | 3.2 | 11.3 | 0.00 | 0.00 | 0.00 | 55 | 1020.4 |
| 20260510134602 | 15 | 63 | 6.4 | 14.5 | 0.00 | 0.00 | 0.00 | 54 | 1020.0 |
| 20260510133059 | 15 | 327 | 3.2 | 16.1 | 0.00 | 0.00 | 0.00 | 57 | 1019.8 |
| 20260510131603 | 14 | 352 | 3.2 | 11.3 | 0.00 | 0.00 | 0.00 | 58 | 1019.3 |
| 20260510130059 | 14 | 316 | 4.8 | 14.5 | 0.00 | 0.00 | 0.00 | 60 | 1019.0 |
| 20260510124613 | 13 | 319 | 4.8 | 12.9 | 0.00 | 0.00 | 0.00 | 61 | 1018.9 |
| 20260510123059 | 13 | 338 | 1.6 | 6.4 | 0.00 | 0.00 | 0.00 | 63 | 1018.8 |
| 20260510121600 | 13 | 342 | 1.6 | 9.7 | 0.00 | 0.00 | 0.00 | 65 | 1018.8 |
| 20260510120055 | 12 | 309 | 3.2 | 6.4 | 0.00 | 0.00 | 0.00 | 69 | 1018.8 |
| 20260510114602 | 12 | 314 | 1.6 | 8.0 | 0.00 | 0.00 | 0.00 | 71 | 1018.4 |
| 20260510113102 | 12 | 314 | 0.0 | 6.4 | 0.00 | 0.00 | 0.00 | 69 | 1018.0 |
| 20260510111624 | 12 | 330 | 0.0 | 4.8 | 0.00 | 0.00 | 0.00 | 66 | 1017.7 |
| 20260510110056 | 13 | 51 | 1.6 | 4.8 | 0.00 | 0.00 | 0.00 | 64 | 1017.5 |
| 20260510104610 | 13 | 306 | 3.2 | 8.0 | 0.00 | 0.00 | 0.00 | 66 | 1017.4 |
| 20260510103055 | 13 | 309 | 3.2 | 9.7 | 0.00 | 0.00 | 0.00 | 67 | 1017.2 |
| 20260510101554 | 13 | 359 | 3.2 | 8.0 | 0.00 | 0.00 | 0.00 | 68 | 1016.9 |
| 20260510100100 | 14 | 315 | 4.8 | 11.3 | 0.00 | 0.00 | 0.00 | 72 | 1017.0 |
| 20260510094553 | 14 | 41 | 3.2 | 12.9 | 0.00 | 0.00 | 0.00 | 75 | 1016.5 |
| 20260510093053 | 14 | 333 | 3.2 | 9.7 | 0.00 | 0.00 | 0.00 | 84 | 1016.2 |
| 20260510091558 | 14 | 309 | 1.6 | 4.8 | 0.00 | 0.00 | 0.00 | 84 | 1015.7 |
| 20260510084559 | 14 | 0 | 0.0 | 3.2 | 0.00 | 0.00 | 0.00 | 85 | 1015.2 |
| 20260510083059 | 14 | 41 | 0.0 | 4.8 | 0.00 | 0.00 | 0.00 | 85 | 1015.1 |
| 20260510081553 | 14 | 0 | 0.0 | 3.2 | 0.00 | 0.00 | 0.00 | 85 | 1015.0 |
| 20260510074557 | 14 | 0 | 0.0 | 1.6 | 0.00 | 0.00 | 0.00 | 88 | 1015.0 |
| 20260510073057 | 15 | 0 | 0.0 | 0.0 | 0.00 | 0.00 | 0.00 | 86 | 1015.0 |
| 20260510071554 | 15 | 0 | 0.0 | 3.2 | 0.00 | 0.00 | 0.00 | 85 | 1014.6 |
| 20260510070105 | 15 | 327 | 0.0 | 3.2 | 0.00 | 0.00 | 0.00 | 86 | 1014.5 |
| 20260510064609 | 15 | 57 | 0.0 | 4.8 | 0.00 | 0.00 | 0.00 | 87 | 1014.6 |
| 20260510063054 | 15 | 307 | 3.2 | 6.4 | 0.00 | 0.00 | 0.00 | 87 | 1015.2 |
| 20260510061553 | 15 | 297 | 1.6 | 3.2 | 0.00 | 0.00 | 0.00 | 86 | 1015.1 |
| 20260510060055 | 16 | 0 | 0.0 | 11.3 | 0.00 | 0.00 | 0.00 | 83 | 1014.5 |
| 20260510054552 | 16 | 58 | 1.6 | 6.4 | 0.00 | 0.00 | 0.00 | 84 | 1014.5 |
| 20260510053054 | 16 | 307 | 1.6 | 4.8 | 0.00 | 0.00 | 0.00 | 82 | 1014.3 |
| 20260510051601 | 16 | 0 | 0.0 | 1.6 | 0.00 | 0.00 | 0.00 | 81 | 1014.1 |
| 20260510050055 | 16 | 0 | 1.6 | 6.4 | 0.00 | 0.00 | 0.00 | 81 | 1013.7 |
| 20260510044604 | 16 | 311 | 4.8 | 6.4 | 0.00 | 0.00 | 0.00 | 82 | 1013.6 |
| 20260510043053 | 16 | 304 | 3.2 | 4.8 | 0.00 | 0.00 | 0.00 | 79 | 1013.2 |
| 20260510041604 | 17 | 0 | 0.0 | 1.6 | 0.00 | 0.00 | 0.00 | 77 | 1012.9 |
| 20260510040056 | 17 | 0 | 0.0 | 0.0 | 0.00 | 0.00 | 0.00 | 75 | 1012.4 |
| 20260510034559 | 18 | 0 | 0.0 | 0.0 | 0.00 | 0.00 | 0.00 | 74 | 1012.4 |
| 20260510033054 | 18 | 60 | 0.0 | 0.0 | 0.00 | 0.00 | 0.00 | 69 | 1012.5 |
| 20260510031557 | 18 | 98 | 0.0 | 1.6 | 0.00 | 0.00 | 0.00 | 67 | 1012.3 |
| 20260510030057 | 19 | 0 | 0.0 | 3.2 | 0.00 | 0.00 | 0.00 | 66 | 1012.2 |
| 20260510024553 | 20 | 289 | 3.2 | 6.4 | 0.00 | 0.03 | 0.00 | 64 | 1012.0 |
| 20260510023050 | 20 | 323 | 4.8 | 9.7 | 0.00 | 0.03 | 0.00 | 63 | 1011.6 |
| 20260510021552 | 20 | 306 | 4.8 | 12.9 | 0.00 | 0.03 | 0.00 | 61 | 1011.2 |
| 20260510020051 | 21 | 314 | 11.3 | 25.7 | 0.00 | 0.03 | 0.00 | 60 | 1010.6 |
| 20260510014556 | 21 | 326 | 14.5 | 24.1 | 0.00 | 0.23 | 0.00 | 60 | 1010.4 |
| 20260510013103 | 22 | 0 | 1.6 | 3.2 | 0.00 | 0.23 | 0.00 | 54 | 1009.1 |
| 20260510011555 | 22 | 177 | 1.6 | 4.8 | 0.00 | 0.23 | 0.00 | 52 | 1008.8 |
| 20260510010055 | 23 | 184 | 1.6 | 6.4 | 0.00 | 0.23 | 0.00 | 50 | 1008.9 |
| 20260510004553 | 24 | 159 | 4.8 | 8.0 | 0.00 | 0.81 | 0.00 | 48 | 1008.9 |
| 20260510003059 | 25 | 136 | 3.2 | 8.0 | 0.00 | 0.81 | 0.00 | 46 | 1008.8 |
| 20260510001557 | 26 | 170 | 4.8 | 11.3 | 0.00 | 0.81 | 0.00 | 44 | 1008.8 |
| 20260510000114 | 26 | 197 | 4.8 | 9.7 | 0.00 | 0.81 | 0.00 | 43 | 1008.8 |
| 20260509234605 | 26 | 233 | 1.6 | 9.7 | 0.00 | 0.94 | 0.00 | 43 | 1008.8 |
| 20260509233057 | 25 | 244 | 8.0 | 16.1 | 0.00 | 0.94 | 0.00 | 42 | 1008.8 |
| 20260509231610 | 26 | 225 | 8.0 | 19.3 | 0.00 | 0.94 | 0.00 | 41 | 1008.9 |
| 20260509230105 | 26 | 287 | 8.0 | 17.7 | 0.00 | 0.94 | 0.00 | 40 | 1008.9 |
| 20260509224554 | 26 | 242 | 8.0 | 16.1 | 0.00 | 0.94 | 0.00 | 44 | 1008.7 |
| 20260509223051 | 26 | 250 | 9.7 | 16.1 | 0.00 | 0.94 | 0.00 | 42 | 1008.8 |
| 20260509221549 | 27 | 214 | 11.3 | 19.3 | 0.00 | 0.94 | 0.00 | 39 | 1008.8 |
| 20260509220053 | 27 | 206 | 9.7 | 14.5 | 0.00 | 0.94 | 0.00 | 37 | 1008.6 |
| 20260509214552 | 27 | 257 | 9.7 | 20.9 | 0.00 | 0.97 | 0.00 | 38 | 1008.7 |
| 20260509213054 | 27 | 139 | 8.0 | 17.7 | 0.00 | 0.97 | 0.00 | 43 | 1008.8 |
| 20260509211558 | 27 | 234 | 14.5 | 20.9 | 0.00 | 0.97 | 0.00 | 40 | 1008.8 |
| 20260509210105 | 26 | 283 | 8.0 | 17.7 | 0.00 | 0.97 | 0.00 | 42 | 1009.0 |